createdAt,value
2023-03-16T00:00:18.600Z,5.57
2023-03-16T00:03:05.642Z,8.65
2023-03-16T00:05:32.409Z,6.07
2023-03-16T00:07:59.462Z,5.75
2023-03-16T00:10:27.910Z,5.97
2023-03-16T00:12:56.508Z,6.50
2023-03-16T00:15:23.275Z,6.85
2023-03-16T00:17:50.325Z,4.60
2023-03-16T00:20:18.422Z,9.32
2023-03-16T00:22:45.645Z,5.30
2023-03-16T00:25:14.563Z,3.33
2023-03-16T00:27:41.710Z,5.55
2023-03-16T00:30:11.998Z,8.65
2023-03-16T00:32:39.494Z,10.13
2023-03-16T00:35:09.379Z,6.13
2023-03-16T00:37:37.742Z,8.85
2023-03-16T00:40:07.788Z,4.97
2023-03-16T00:42:37.449Z,6.25
2023-03-16T00:45:05.905Z,5.25
2023-03-16T00:47:34.178Z,4.43
2023-03-16T00:50:01.874Z,6.22
2023-03-16T00:52:29.425Z,10.93
2023-03-16T00:54:56.595Z,4.72
2023-03-16T00:57:25.561Z,5.65
2023-03-16T00:59:52.798Z,8.10
2023-03-16T01:02:23.565Z,5.88
2023-03-16T01:04:51.854Z,6.05
2023-03-16T01:07:19.291Z,8.02
2023-03-16T01:09:46.561Z,7.25
2023-03-16T01:12:17.435Z,6.45
2023-03-16T01:14:47.948Z,5.75
2023-03-16T01:17:17.364Z,7.63
2023-03-16T01:19:45.223Z,6.78
2023-03-16T01:22:12.398Z,7.95
2023-03-16T01:24:40.879Z,5.22
2023-03-16T01:27:09.088Z,7.95
2023-03-16T01:29:36.583Z,8.93
2023-03-16T01:32:04.606Z,6.70
2023-03-16T01:34:32.306Z,6.38
2023-03-16T01:36:59.895Z,4.47
2023-03-16T01:39:27.486Z,6.63
2023-03-16T01:41:54.632Z,7.80
2023-03-16T01:44:28.243Z,7.30
2023-03-16T01:46:55.333Z,5.63
2023-03-16T01:49:49.464Z,7.50
2023-03-16T01:54:57.119Z,5.47
2023-03-16T01:57:32.520Z,3.95
2023-03-16T02:00:10.600Z,3.88
2023-03-16T02:02:43.737Z,4.28
2023-03-16T02:05:15.388Z,11.60
2023-03-16T02:07:49.340Z,10.60
2023-03-16T02:10:19.968Z,4.95
2023-03-16T02:12:47.424Z,5.57
2023-03-16T02:15:15.040Z,6.20
2023-03-16T02:17:44.215Z,7.15
2023-03-16T02:20:29.972Z,3.95
2023-03-16T02:22:58.247Z,9.90
2023-03-16T02:25:31.816Z,9.55
2023-03-16T02:31:02.223Z,3.85
2023-03-16T02:33:32.183Z,7.20
2023-03-16T02:35:59.057Z,7.75
2023-03-16T02:38:26.435Z,10.85
2023-03-16T02:41:01.484Z,7.80
2023-03-16T02:43:33.579Z,6.25
2023-03-16T02:46:05.308Z,12.20
2023-03-16T02:48:39.644Z,6.93
2023-03-16T02:51:06.510Z,6.18
2023-03-16T02:53:33.701Z,6.93
2023-03-16T02:56:02.853Z,8.25
2023-03-16T02:58:30.257Z,7.63
2023-03-16T03:00:57.092Z,4.65
2023-03-16T03:03:24.686Z,7.88
2023-03-16T03:05:51.538Z,9.20
2023-03-16T03:08:21.591Z,9.60
2023-03-16T03:10:48.928Z,6.18
2023-03-16T03:13:16.352Z,4.95
2023-03-16T03:15:43.305Z,5.47
2023-03-16T03:18:10.376Z,9.55
2023-03-16T03:20:37.245Z,11.45
2023-03-16T03:23:04.459Z,9.23
2023-03-16T03:25:34.823Z,8.10
2023-03-16T03:28:05.657Z,7.13
2023-03-16T03:30:33.067Z,5.45
2023-03-16T03:33:01.574Z,8.05
2023-03-16T03:35:28.458Z,13.40
2023-03-16T03:37:55.689Z,6.80
2023-03-16T03:40:22.477Z,7.40
2023-03-16T03:42:49.550Z,6.85
2023-03-16T03:45:16.626Z,5.70
2023-03-16T03:47:44.828Z,8.85
2023-03-16T03:50:13.940Z,8.10
2023-03-16T03:52:41.563Z,5.88
2023-03-16T03:55:09.558Z,6.20
2023-03-16T03:57:36.785Z,8.07
2023-03-16T04:00:09.532Z,7.25
2023-03-16T04:02:37.300Z,7.90
2023-03-16T04:05:05.538Z,5.93
2023-03-16T04:07:33.020Z,14.00
2023-03-16T04:09:59.815Z,10.77
2023-03-16T04:12:26.908Z,8.85
2023-03-16T04:14:53.762Z,7.63
2023-03-16T04:17:26.775Z,10.45
2023-03-16T04:19:53.552Z,7.20
2023-03-16T04:22:23.242Z,9.52
2023-03-16T04:24:50.047Z,13.45
2023-03-16T04:27:18.370Z,8.40
2023-03-16T04:29:45.177Z,8.20
2023-03-16T04:32:12.367Z,6.95
2023-03-16T04:34:41.817Z,8.50
2023-03-16T04:37:08.901Z,8.10
2023-03-16T04:39:35.673Z,13.32
2023-03-16T04:42:02.731Z,6.97
2023-03-16T04:44:29.891Z,6.57
2023-03-16T04:46:56.966Z,7.05
2023-03-16T04:49:23.741Z,9.70
2023-03-16T04:51:50.972Z,8.98
2023-03-16T04:54:17.763Z,7.70
2023-03-16T04:56:44.920Z,7.20
2023-03-16T04:59:12.460Z,7.32
2023-03-16T05:01:39.526Z,6.70
2023-03-16T05:04:06.293Z,6.50
2023-03-16T05:06:33.335Z,5.00
2023-03-16T05:09:01.107Z,9.27
2023-03-16T05:11:28.158Z,12.18
2023-03-16T05:13:54.997Z,10.30
2023-03-16T05:16:22.159Z,9.75
2023-03-16T05:18:49.142Z,8.23
2023-03-16T05:21:16.645Z,9.25
2023-03-16T05:23:43.493Z,11.02
2023-03-16T05:26:10.576Z,8.70
2023-03-16T05:28:37.346Z,8.77
2023-03-16T05:31:04.578Z,9.23
2023-03-16T05:33:31.440Z,10.77
2023-03-16T05:35:58.761Z,6.85
2023-03-16T05:38:27.581Z,11.88
2023-03-16T05:40:54.809Z,10.30
2023-03-16T05:43:21.927Z,16.65
2023-03-16T05:45:49.268Z,12.20
2023-03-16T05:48:16.163Z,10.27
2023-03-16T05:50:43.315Z,11.82
2023-03-16T05:53:10.239Z,9.68
2023-03-16T05:55:37.333Z,5.85
2023-03-16T05:58:05.727Z,10.68
2023-03-16T06:00:33.184Z,7.90
2023-03-16T06:03:00.210Z,10.35
2023-03-16T06:05:28.642Z,9.65
2023-03-16T06:07:55.536Z,8.50
2023-03-16T06:10:22.873Z,8.52
2023-03-16T06:12:50.015Z,10.77
2023-03-16T06:15:17.151Z,12.50
2023-03-16T06:17:44.113Z,10.32
2023-03-16T06:20:13.463Z,10.48
2023-03-16T06:22:42.416Z,12.35
2023-03-16T06:25:12.269Z,7.68
2023-03-16T06:27:39.815Z,9.15
2023-03-16T06:30:08.779Z,13.45
2023-03-16T06:32:36.390Z,16.98
2023-03-16T06:35:05.325Z,9.43
2023-03-16T06:37:32.450Z,10.07
2023-03-16T06:39:59.690Z,8.13
2023-03-16T06:42:26.728Z,9.43
2023-03-16T06:44:53.864Z,8.35
2023-03-16T06:47:21.563Z,8.32
2023-03-16T06:49:48.957Z,7.22
2023-03-16T06:52:15.816Z,6.68
2023-03-16T06:54:46.681Z,8.50
2023-03-16T06:57:18.391Z,11.88
2023-03-16T06:59:45.472Z,11.20
2023-03-16T07:02:13.903Z,10.00
2023-03-16T07:04:58.882Z,7.70
2023-03-16T07:07:27.296Z,7.95
2023-03-16T07:09:54.082Z,10.80
2023-03-16T07:12:21.187Z,7.80
2023-03-16T07:14:51.832Z,9.45
2023-03-16T07:17:20.179Z,9.38
2023-03-16T07:19:47.086Z,7.47
2023-03-16T07:22:15.532Z,9.30
2023-03-16T07:24:43.796Z,12.05
2023-03-16T07:27:12.485Z,9.73
2023-03-16T07:29:39.551Z,7.78
2023-03-16T07:32:06.851Z,14.35
2023-03-16T07:34:33.806Z,8.80
2023-03-16T07:37:01.000Z,9.95
2023-03-16T07:39:28.640Z,8.00
2023-03-16T07:41:56.166Z,9.23
2023-03-16T07:44:23.081Z,7.10
2023-03-16T07:46:50.250Z,6.80
2023-03-16T07:49:17.062Z,8.73
2023-03-16T07:51:44.184Z,6.97
2023-03-16T07:54:10.978Z,10.95
2023-03-16T07:56:48.234Z,5.95
2023-03-16T07:59:16.135Z,12.40
2023-03-16T08:01:43.292Z,5.55
2023-03-16T08:04:12.379Z,8.75
2023-03-16T08:06:39.478Z,6.72
2023-03-16T08:09:06.402Z,7.60
2023-03-16T08:11:33.743Z,7.18
2023-03-16T08:14:00.727Z,5.53
2023-03-16T08:16:28.423Z,8.48
2023-03-16T08:18:59.704Z,5.32
2023-03-16T08:21:28.451Z,6.53
2023-03-16T08:23:55.340Z,7.50
2023-03-16T08:26:23.641Z,5.78
2023-03-16T08:28:52.084Z,7.35
2023-03-16T08:31:20.742Z,12.48
2023-03-16T08:33:49.794Z,5.38
2023-03-16T08:36:18.422Z,5.60
2023-03-16T08:39:03.792Z,5.60
2023-03-16T08:41:34.757Z,5.20
2023-03-16T08:44:03.282Z,6.72
2023-03-16T08:46:30.887Z,8.43
2023-03-16T08:48:57.778Z,5.25
2023-03-16T08:51:25.057Z,5.20
2023-03-16T08:53:51.962Z,3.75
2023-03-16T08:56:19.568Z,5.30
2023-03-16T08:58:46.527Z,5.95
2023-03-16T09:01:17.576Z,6.32
2023-03-16T09:03:46.461Z,4.78
2023-03-16T09:06:16.088Z,5.00
2023-03-16T09:08:45.402Z,3.92
2023-03-16T09:11:15.014Z,5.90
2023-03-16T09:13:42.938Z,7.35
2023-03-16T09:16:12.656Z,5.82
2023-03-16T09:18:39.968Z,7.10
2023-03-16T09:21:10.425Z,8.60
2023-03-16T09:23:41.795Z,8.93
2023-03-16T09:26:09.911Z,8.38
2023-03-16T09:28:38.895Z,8.25
2023-03-16T09:31:08.152Z,5.88
2023-03-16T09:33:36.097Z,9.18
2023-03-16T09:36:03.924Z,7.78
2023-03-16T09:38:32.225Z,7.15
2023-03-16T09:41:08.662Z,7.57
2023-03-16T09:44:02.860Z,7.47
2023-03-16T09:46:38.721Z,9.25
2023-03-16T09:49:05.599Z,6.80
2023-03-16T09:51:38.898Z,5.25
2023-03-16T09:54:39.182Z,6.20
2023-03-16T09:57:26.125Z,7.45
2023-03-16T09:59:53.252Z,4.55
2023-03-16T10:02:48.564Z,6.55
2023-03-16T10:05:20.685Z,5.30
2023-03-16T10:08:09.111Z,6.53
2023-03-16T10:11:10.902Z,4.40
2023-03-16T10:13:47.801Z,5.93
2023-03-16T10:16:38.401Z,6.30
2023-03-16T10:19:16.216Z,6.50
2023-03-16T10:21:43.472Z,3.55
2023-03-16T10:24:27.480Z,5.95
2023-03-16T10:27:02.217Z,6.45
2023-03-16T10:29:35.208Z,5.75
2023-03-16T10:32:12.734Z,5.70
2023-03-16T10:34:40.498Z,7.03
2023-03-16T10:37:13.956Z,7.28
2023-03-16T10:42:18.685Z,6.78
2023-03-16T10:44:46.660Z,3.80
2023-03-16T10:47:24.881Z,3.95
2023-03-16T10:49:52.028Z,5.45
2023-03-16T10:52:28.031Z,6.18
2023-03-16T10:54:58.816Z,3.75
2023-03-16T10:57:34.196Z,3.70
2023-03-16T11:00:13.804Z,4.15
2023-03-16T11:02:40.855Z,4.57
2023-03-16T11:05:23.921Z,5.28
2023-03-16T11:08:01.584Z,5.07
2023-03-16T11:10:36.153Z,4.72
2023-03-16T11:13:21.317Z,3.78
2023-03-16T11:15:51.282Z,4.72
2023-03-16T11:18:32.435Z,4.07
2023-03-16T11:21:12.770Z,4.18
2023-03-16T11:23:46.113Z,3.67
2023-03-16T11:28:50.560Z,5.13
2023-03-16T11:31:24.454Z,4.25
2023-03-16T11:33:54.411Z,4.45
2023-03-16T11:36:50.553Z,6.28
2023-03-16T11:39:28.209Z,5.85
2023-03-16T11:42:04.180Z,4.82
2023-03-16T11:45:01.555Z,4.65
2023-03-16T11:47:37.600Z,5.43
2023-03-16T11:50:33.717Z,7.38
2023-03-16T11:53:48.853Z,5.68
2023-03-16T11:58:58.000Z,4.32
2023-03-16T12:01:50.557Z,3.08
2023-03-16T12:04:33.451Z,2.08
2023-03-16T12:07:12.810Z,6.63
2023-03-16T12:09:55.943Z,4.45
2023-03-16T12:12:50.441Z,4.22
2023-03-16T12:15:48.185Z,3.13
2023-03-16T12:18:21.412Z,3.45
2023-03-16T12:21:04.449Z,3.35
2023-03-16T12:23:58.114Z,4.40
2023-03-16T12:26:30.216Z,10.45
2023-03-16T12:28:59.928Z,5.97
2023-03-16T12:31:47.594Z,4.00
2023-03-16T12:34:17.529Z,3.42
2023-03-16T12:36:55.927Z,2.92
2023-03-16T12:39:41.215Z,2.45
2023-03-16T12:42:25.954Z,2.13
2023-03-16T12:45:08.810Z,1.30
2023-03-16T12:47:59.574Z,1.23
2023-03-16T12:50:27.329Z,1.98
2023-03-16T12:52:54.658Z,2.10
2023-03-16T12:55:28.061Z,2.15
2023-03-16T12:58:06.550Z,2.38
2023-03-16T13:00:38.459Z,3.53
2023-03-16T13:03:12.026Z,1.77
2023-03-16T13:08:14.716Z,1.80
2023-03-16T13:10:42.838Z,3.70
2023-03-16T13:13:15.190Z,1.67
2023-03-16T13:15:46.423Z,2.13
2023-03-16T13:18:17.049Z,1.20
2023-03-16T13:20:53.064Z,2.45
2023-03-16T13:23:27.688Z,2.30
2023-03-16T13:26:01.148Z,1.95
2023-03-16T13:28:32.785Z,1.58
2023-03-16T13:31:00.852Z,2.00
2023-03-16T13:33:31.178Z,1.67
2023-03-16T13:35:59.615Z,1.77
2023-03-16T13:38:31.439Z,3.75
2023-03-16T13:41:04.333Z,3.17
2023-03-16T13:46:16.264Z,1.40
2023-03-16T13:48:43.872Z,3.60
2023-03-16T13:51:16.605Z,2.55
2023-03-16T13:53:44.606Z,2.97
2023-03-16T13:56:23.806Z,1.65
2023-03-16T13:58:52.629Z,2.60
2023-03-16T14:01:32.145Z,4.60
2023-03-16T14:04:08.472Z,4.20
2023-03-16T14:06:35.988Z,1.95
2023-03-16T14:09:08.012Z,1.50
2023-03-16T14:11:35.024Z,1.85
2023-03-16T14:14:14.791Z,3.20
2023-03-16T14:16:42.513Z,2.50
2023-03-16T14:19:24.604Z,2.20
2023-03-16T14:21:52.132Z,1.60
2023-03-16T14:24:35.386Z,1.15
2023-03-16T14:27:42.459Z,3.40
2023-03-16T14:30:26.146Z,1.77
2023-03-16T14:32:57.167Z,2.92
2023-03-16T14:35:28.772Z,2.95
2023-03-16T14:37:57.116Z,1.60
2023-03-16T14:40:33.281Z,1.52
2023-03-16T14:43:03.744Z,2.78
2023-03-16T14:45:34.783Z,3.00
2023-03-16T14:48:06.045Z,2.70
2023-03-16T14:50:34.677Z,3.15
2023-03-16T14:53:04.254Z,6.40
2023-03-16T14:55:34.540Z,2.17
2023-03-16T14:58:01.749Z,2.92
2023-03-16T15:00:32.967Z,4.85
2023-03-16T15:03:06.575Z,1.63
2023-03-16T15:05:37.430Z,1.30
2023-03-16T15:08:06.968Z,2.60
2023-03-16T15:10:35.800Z,2.97
2023-03-16T15:13:13.190Z,2.78
2023-03-16T15:15:42.597Z,1.92
2023-03-16T15:18:10.068Z,2.90
2023-03-16T15:20:43.537Z,2.92
2023-03-16T15:23:16.696Z,2.10
2023-03-16T15:25:45.867Z,2.45
2023-03-16T15:28:18.984Z,3.00
2023-03-16T15:30:57.516Z,1.30
2023-03-16T15:33:24.940Z,2.90
2023-03-16T15:35:55.697Z,3.00
2023-03-16T15:38:34.689Z,1.67
2023-03-16T15:41:02.265Z,2.17
2023-03-16T15:43:30.760Z,2.35
2023-03-16T15:45:59.920Z,3.35
2023-03-16T15:48:29.721Z,2.03
2023-03-16T15:51:02.446Z,3.28
2023-03-16T15:53:42.789Z,2.80
2023-03-16T15:56:11.997Z,3.60
2023-03-16T15:58:41.882Z,2.78
2023-03-16T16:01:20.377Z,1.77
2023-03-16T16:03:48.310Z,2.30
2023-03-16T16:06:17.370Z,3.75
2023-03-16T16:08:44.251Z,2.97
2023-03-16T16:11:22.404Z,3.53
2023-03-16T16:13:49.534Z,5.00
2023-03-16T16:16:18.899Z,2.90
2023-03-16T16:18:47.511Z,3.72
2023-03-16T16:21:17.825Z,2.22
2023-03-16T16:23:45.063Z,1.80
2023-03-16T16:26:50.549Z,5.28
2023-03-16T16:29:30.702Z,2.67
2023-03-16T16:31:58.100Z,4.30
2023-03-16T16:34:25.633Z,2.17
2023-03-16T16:36:54.337Z,3.33
2023-03-16T16:39:22.137Z,3.22
2023-03-16T16:41:52.044Z,3.13
2023-03-16T16:44:23.496Z,4.22
2023-03-16T16:46:54.765Z,4.13
2023-03-16T16:49:31.061Z,5.90
2023-03-16T16:51:58.832Z,2.63
2023-03-16T16:54:29.217Z,3.65
2023-03-16T16:56:59.449Z,4.15
2023-03-16T16:59:31.337Z,3.35
2023-03-16T17:02:08.261Z,2.78
2023-03-16T17:04:35.552Z,7.25
2023-03-16T17:07:03.571Z,4.13
2023-03-16T17:09:30.776Z,4.20
2023-03-16T17:12:01.100Z,3.67
2023-03-16T17:14:28.537Z,4.90
2023-03-16T17:17:05.162Z,4.10
2023-03-16T17:19:32.852Z,4.50
2023-03-16T17:22:02.407Z,4.32
2023-03-16T17:24:29.755Z,3.92
2023-03-16T17:27:00.721Z,6.75
2023-03-16T17:29:31.696Z,5.38
2023-03-16T17:32:04.494Z,5.35
2023-03-16T17:34:33.712Z,4.18
2023-03-16T17:37:01.834Z,5.30
2023-03-16T17:39:31.349Z,6.82
2023-03-16T17:42:04.660Z,5.60
2023-03-16T17:44:35.107Z,7.38
2023-03-16T17:47:02.525Z,5.95
2023-03-16T17:49:30.788Z,10.07
2023-03-16T17:51:57.968Z,7.10
2023-03-16T17:54:24.789Z,14.23
2023-03-16T17:56:54.096Z,10.27
2023-03-16T17:59:23.066Z,10.80
2023-03-16T18:01:50.461Z,8.50
2023-03-16T18:04:18.333Z,10.07
2023-03-16T18:06:47.562Z,10.65
2023-03-16T18:09:15.937Z,11.27
2023-03-16T18:11:48.043Z,11.93
2023-03-16T18:14:35.273Z,6.85
2023-03-16T18:17:24.022Z,6.80
2023-03-16T18:19:50.972Z,10.40
2023-03-16T18:22:20.143Z,9.65
2023-03-16T18:24:48.569Z,7.15
2023-03-16T18:27:16.252Z,8.27
2023-03-16T18:29:43.143Z,8.07
2023-03-16T18:32:21.935Z,7.43
2023-03-16T18:34:49.386Z,9.55
2023-03-16T18:37:29.983Z,7.75
2023-03-16T18:39:56.816Z,7.88
2023-03-16T18:42:27.650Z,9.30
2023-03-16T18:44:54.715Z,7.00
2023-03-16T18:47:23.841Z,9.15
2023-03-16T18:49:54.168Z,8.05
2023-03-16T18:52:23.980Z,17.05
2023-03-16T18:54:53.017Z,12.80
2023-03-16T18:57:22.892Z,12.35
2023-03-16T18:59:50.574Z,8.82
2023-03-16T19:02:27.616Z,11.25
2023-03-16T19:04:59.784Z,9.35
2023-03-16T19:07:34.062Z,16.30
2023-03-16T19:10:08.596Z,14.15
2023-03-16T19:12:35.702Z,23.75
2023-03-16T19:15:19.085Z,7.45
2023-03-16T19:17:47.105Z,12.15
2023-03-16T19:20:16.517Z,7.45
2023-03-16T19:22:46.516Z,8.55
2023-03-16T19:25:18.184Z,6.22
2023-03-16T19:27:46.178Z,14.10
2023-03-16T19:30:30.363Z,8.77
2023-03-16T19:32:57.959Z,8.15
2023-03-16T19:35:44.279Z,5.63
2023-03-16T19:38:14.992Z,8.82
2023-03-16T19:40:42.418Z,6.78
2023-03-16T19:43:18.379Z,5.82
2023-03-16T19:45:46.795Z,5.40
2023-03-16T19:48:21.062Z,6.90
2023-03-16T19:50:49.667Z,6.03
2023-03-16T19:53:19.201Z,10.38
2023-03-16T19:55:48.128Z,9.63
2023-03-16T19:58:39.010Z,5.47
2023-03-16T20:01:13.260Z,6.70
2023-03-16T20:03:40.351Z,7.75
2023-03-16T20:06:12.279Z,6.03
2023-03-16T20:08:39.705Z,8.05
2023-03-16T20:11:10.162Z,6.78
2023-03-16T20:13:37.408Z,10.60
2023-03-16T20:16:04.617Z,8.48
2023-03-16T20:18:32.079Z,10.25
2023-03-16T20:20:58.865Z,7.95
2023-03-16T20:23:29.332Z,7.60
2023-03-16T20:26:02.086Z,12.18
2023-03-16T20:28:37.081Z,8.73
2023-03-16T20:31:08.137Z,8.10
2023-03-16T20:33:35.410Z,13.88
2023-03-16T20:36:02.254Z,7.70
2023-03-16T20:38:29.404Z,7.53
2023-03-16T20:40:56.649Z,8.05
2023-03-16T20:43:29.195Z,7.93
2023-03-16T20:46:02.520Z,8.25
2023-03-16T20:48:30.032Z,7.45
2023-03-16T20:51:00.586Z,7.88
2023-03-16T20:53:27.754Z,6.50
2023-03-16T20:55:56.530Z,11.23
2023-03-16T20:58:26.547Z,8.77
2023-03-16T21:00:57.769Z,9.07
2023-03-16T21:03:30.851Z,14.55
2023-03-16T21:05:59.781Z,7.15
2023-03-16T21:08:27.541Z,6.90
2023-03-16T21:10:56.827Z,10.05
2023-03-16T21:13:32.991Z,8.80
2023-03-16T21:16:01.998Z,20.65
2023-03-16T21:18:30.456Z,7.05
2023-03-16T21:20:58.262Z,11.02
2023-03-16T21:23:25.397Z,12.00
2023-03-16T21:26:00.740Z,6.47
2023-03-16T21:28:31.568Z,7.00
2023-03-16T21:30:58.705Z,11.07
2023-03-16T21:33:30.010Z,12.35
2023-03-16T21:35:58.556Z,8.88
2023-03-16T21:38:27.603Z,10.30
2023-03-16T21:40:54.444Z,9.50
2023-03-16T21:43:24.826Z,8.27
2023-03-16T21:45:52.078Z,13.35
2023-03-16T21:48:25.328Z,9.02
2023-03-16T21:50:53.861Z,8.27
2023-03-16T21:53:27.269Z,13.27
2023-03-16T21:55:55.087Z,6.72
2023-03-16T21:58:23.722Z,17.48
2023-03-16T22:00:52.312Z,12.93
2023-03-16T22:03:49.458Z,9.52
2023-03-16T22:06:17.281Z,19.75
2023-03-16T22:08:44.410Z,12.40
2023-03-16T22:11:18.037Z,16.10
2023-03-16T22:13:45.366Z,13.48
2023-03-16T22:16:17.921Z,12.52
2023-03-16T22:18:47.360Z,9.60
2023-03-16T22:21:20.133Z,8.93
2023-03-16T22:23:47.600Z,7.28
2023-03-16T22:26:17.707Z,11.63
2023-03-16T22:28:46.499Z,10.88
2023-03-16T22:31:17.879Z,8.70
2023-03-16T22:33:47.779Z,16.67
2023-03-16T22:36:22.809Z,8.43
2023-03-16T22:38:57.034Z,12.15
2023-03-16T22:41:23.950Z,12.73
2023-03-16T22:43:51.780Z,14.48
2023-03-16T22:46:28.524Z,9.00
2023-03-16T22:48:56.778Z,13.38
2023-03-16T22:51:28.842Z,10.75
2023-03-16T22:54:02.476Z,12.00
2023-03-16T22:56:32.209Z,13.93
2023-03-16T22:59:02.962Z,9.38
2023-03-16T23:01:42.631Z,8.85
2023-03-16T23:04:22.119Z,11.30
2023-03-16T23:06:51.441Z,16.50
2023-03-16T23:09:20.637Z,11.95
2023-03-16T23:11:53.497Z,18.15
2023-03-16T23:14:27.407Z,13.15
2023-03-16T23:16:54.336Z,15.32
2023-03-16T23:19:34.010Z,8.98
2023-03-16T23:22:06.624Z,13.57
2023-03-16T23:24:35.099Z,14.33
2023-03-16T23:27:02.682Z,8.98
2023-03-16T23:29:31.115Z,9.77
2023-03-16T23:31:58.002Z,10.68
2023-03-16T23:34:25.701Z,13.48
2023-03-16T23:36:52.870Z,9.25
2023-03-16T23:39:19.934Z,14.82
2023-03-16T23:41:48.733Z,10.18
2023-03-16T23:44:25.902Z,11.43
2023-03-16T23:46:53.458Z,11.55
2023-03-16T23:49:24.541Z,13.02
2023-03-16T23:51:52.350Z,13.20
2023-03-16T23:54:23.229Z,21.38
2023-03-16T23:56:50.968Z,13.57
2023-03-16T23:59:19.514Z,16.83
